Terminal Aerodrome Forecast
Issued by NWS

Home | Current Version | Previous Version | Graphics & Text | Print | Product List | Glossary On
Versions: 1 2 3 4 5 6 7 8 9 10 11 12 13 14 15 16 17 18 19 20 21 22 23 24 25 26 27 28
000
FTUS43 KLOT 211120
TAFGYY
TAF
KGYY 211120Z 2112/2212 18006KT P6SM SCT250
     FM211500 21012G18KT P6SM SCT050
      TEMPO 2118/2120 -TSRA BKN040CB
     FM220200 22011KT P6SM FEW020 BKN120=

USA.gov is the U.S. government's official web portal to all federal, state and local government web resources and services.